sensor_id;sensor_type;location;lat;lon;timestamp;P1;durP1;ratioP1;P2;durP2;ratioP2
56045;SDS011;41913;51.030;3.706;2023-01-01T00:00:25;1.40;;;1.35;;
56045;SDS011;41913;51.030;3.706;2023-01-01T00:02:53;1.25;;;0.93;;
56045;SDS011;41913;51.030;3.706;2023-01-01T00:05:18;0.90;;;0.70;;
56045;SDS011;41913;51.030;3.706;2023-01-01T00:07:44;5.22;;;1.50;;
56045;SDS011;41913;51.030;3.706;2023-01-01T00:10:10;1.13;;;0.90;;
56045;SDS011;41913;51.030;3.706;2023-01-01T00:12:54;2.35;;;1.45;;
56045;SDS011;41913;51.030;3.706;2023-01-01T00:15:20;0.95;;;0.95;;
56045;SDS011;41913;51.030;3.706;2023-01-01T00:17:46;1.27;;;0.70;;
56045;SDS011;41913;51.030;3.706;2023-01-01T00:20:12;1.30;;;1.30;;
56045;SDS011;41913;51.030;3.706;2023-01-01T00:22:38;1.33;;;1.23;;
56045;SDS011;41913;51.030;3.706;2023-01-01T00:25:04;2.35;;;1.10;;
56045;SDS011;41913;51.030;3.706;2023-01-01T00:27:31;1.08;;;1.08;;
56045;SDS011;41913;51.030;3.706;2023-01-01T00:29:57;1.00;;;1.00;;
56045;SDS011;41913;51.030;3.706;2023-01-01T00:32:23;1.42;;;0.98;;
56045;SDS011;41913;51.030;3.706;2023-01-01T00:34:49;0.98;;;0.95;;
56045;SDS011;41913;51.030;3.706;2023-01-01T00:37:16;0.90;;;0.90;;
56045;SDS011;41913;51.030;3.706;2023-01-01T00:39:43;0.93;;;0.93;;
56045;SDS011;41913;51.030;3.706;2023-01-01T00:42:08;0.90;;;0.90;;
56045;SDS011;41913;51.030;3.706;2023-01-01T00:44:34;1.23;;;1.20;;
56045;SDS011;41913;51.030;3.706;2023-01-01T00:47:00;1.30;;;1.23;;
56045;SDS011;41913;51.030;3.706;2023-01-01T00:49:26;0.60;;;0.60;;
56045;SDS011;41913;51.030;3.706;2023-01-01T00:51:52;1.38;;;1.25;;
56045;SDS011;41913;51.030;3.706;2023-01-01T00:54:18;0.73;;;0.73;;
56045;SDS011;41913;51.030;3.706;2023-01-01T00:56:44;0.60;;;0.60;;
56045;SDS011;41913;51.030;3.706;2023-01-01T00:59:10;2.13;;;0.68;;
56045;SDS011;41913;51.030;3.706;2023-01-01T01:01:36;0.63;;;0.63;;
56045;SDS011;41913;51.030;3.706;2023-01-01T01:04:02;1.00;;;1.00;;
56045;SDS011;41913;51.030;3.706;2023-01-01T01:06:28;3.63;;;1.38;;
56045;SDS011;41913;51.030;3.706;2023-01-01T01:08:54;3.20;;;1.48;;
56045;SDS011;41913;51.030;3.706;2023-01-01T01:11:20;1.33;;;0.80;;
56045;SDS011;41913;51.030;3.706;2023-01-01T01:13:49;0.90;;;0.82;;
56045;SDS011;41913;51.030;3.706;2023-01-01T01:16:21;2.50;;;1.10;;
56045;SDS011;41913;51.030;3.706;2023-01-01T01:18:52;2.72;;;1.15;;
56045;SDS011;41913;51.030;3.706;2023-01-01T01:21:20;3.00;;;1.77;;
56045;SDS011;41913;51.030;3.706;2023-01-01T01:23:47;1.50;;;1.02;;
56045;SDS011;41913;51.030;3.706;2023-01-01T01:26:18;0.82;;;0.82;;
56045;SDS011;41913;51.030;3.706;2023-01-01T01:28:44;0.70;;;0.70;;
56045;SDS011;41913;51.030;3.706;2023-01-01T01:31:10;1.88;;;0.90;;
56045;SDS011;41913;51.030;3.706;2023-01-01T01:33:36;1.65;;;1.20;;
56045;SDS011;41913;51.030;3.706;2023-01-01T01:36:02;1.17;;;0.90;;
56045;SDS011;41913;51.030;3.706;2023-01-01T01:38:29;3.03;;;1.45;;
56045;SDS011;41913;51.030;3.706;2023-01-01T01:40:55;1.13;;;1.10;;
56045;SDS011;41913;51.030;3.706;2023-01-01T01:43:23;1.83;;;0.93;;
56045;SDS011;41913;51.030;3.706;2023-01-01T01:48:41;1.02;;;0.93;;
56045;SDS011;41913;51.030;3.706;2023-01-01T01:53:38;1.05;;;0.80;;
56045;SDS011;41913;51.030;3.706;2023-01-01T01:58:38;0.77;;;0.77;;
56045;SDS011;41913;51.030;3.706;2023-01-01T02:01:04;0.50;;;0.50;;
56045;SDS011;41913;51.030;3.706;2023-01-01T02:03:38;5.53;;;1.00;;
56045;SDS011;41913;51.030;3.706;2023-01-01T02:06:08;1.30;;;0.70;;
56045;SDS011;41913;51.030;3.706;2023-01-01T02:08:34;0.65;;;0.65;;
56045;SDS011;41913;51.030;3.706;2023-01-01T02:11:01;0.90;;;0.90;;
56045;SDS011;41913;51.030;3.706;2023-01-01T02:13:27;1.40;;;0.70;;
56045;SDS011;41913;51.030;3.706;2023-01-01T02:15:54;2.47;;;1.27;;
56045;SDS011;41913;51.030;3.706;2023-01-01T02:18:27;0.60;;;0.60;;
56045;SDS011;41913;51.030;3.706;2023-01-01T02:21:06;1.02;;;0.93;;
56045;SDS011;41913;51.030;3.706;2023-01-01T02:23:53;0.73;;;0.73;;
56045;SDS011;41913;51.030;3.706;2023-01-01T02:29:41;3.42;;;0.90;;
56045;SDS011;41913;51.030;3.706;2023-01-01T02:32:21;0.70;;;0.70;;
56045;SDS011;41913;51.030;3.706;2023-01-01T02:34:52;0.43;;;0.43;;
56045;SDS011;41913;51.030;3.706;2023-01-01T02:37:24;0.50;;;0.50;;
56045;SDS011;41913;51.030;3.706;2023-01-01T02:39:57;0.82;;;0.82;;
56045;SDS011;41913;51.030;3.706;2023-01-01T02:42:24;0.63;;;0.63;;
56045;SDS011;41913;51.030;3.706;2023-01-01T02:44:54;1.52;;;1.10;;
56045;SDS011;41913;51.030;3.706;2023-01-01T02:47:23;0.60;;;0.60;;
56045;SDS011;41913;51.030;3.706;2023-01-01T02:52:43;0.70;;;0.70;;
56045;SDS011;41913;51.030;3.706;2023-01-01T02:55:40;1.65;;;0.47;;
56045;SDS011;41913;51.030;3.706;2023-01-01T03:02:20;0.50;;;0.50;;
56045;SDS011;41913;51.030;3.706;2023-01-01T03:04:35;0.50;;;0.50;;
56045;SDS011;41913;51.030;3.706;2023-01-01T03:07:10;0.57;;;0.57;;
56045;SDS011;41913;51.030;3.706;2023-01-01T03:09:52;0.85;;;0.68;;
56045;SDS011;41913;51.030;3.706;2023-01-01T03:17:57;0.77;;;0.50;;
56045;SDS011;41913;51.030;3.706;2023-01-01T03:20:38;0.43;;;0.43;;
56045;SDS011;41913;51.030;3.706;2023-01-01T03:23:08;0.50;;;0.50;;
56045;SDS011;41913;51.030;3.706;2023-01-01T03:28:11;0.30;;;0.30;;
56045;SDS011;41913;51.030;3.706;2023-01-01T03:30:40;0.30;;;0.30;;
56045;SDS011;41913;51.030;3.706;2023-01-01T03:38:38;0.40;;;0.40;;
56045;SDS011;41913;51.030;3.706;2023-01-01T03:46:53;0.65;;;0.45;;
56045;SDS011;41913;51.030;3.706;2023-01-01T03:49:20;0.68;;;0.57;;
56045;SDS011;41913;51.030;3.706;2023-01-01T03:51:54;0.40;;;0.40;;
56045;SDS011;41913;51.030;3.706;2023-01-01T04:02:38;1.02;;;0.98;;
56045;SDS011;41913;51.030;3.706;2023-01-01T04:05:07;0.50;;;0.50;;
56045;SDS011;41913;51.030;3.706;2023-01-01T04:07:38;1.85;;;0.40;;
56045;SDS011;41913;51.030;3.706;2023-01-01T04:10:06;0.43;;;0.43;;
56045;SDS011;41913;51.030;3.706;2023-01-01T04:12:49;0.57;;;0.57;;
56045;SDS011;41913;51.030;3.706;2023-01-01T04:15:17;0.35;;;0.25;;
56045;SDS011;41913;51.030;3.706;2023-01-01T04:17:45;0.65;;;0.50;;
56045;SDS011;41913;51.030;3.706;2023-01-01T04:20:11;0.45;;;0.45;;
56045;SDS011;41913;51.030;3.706;2023-01-01T04:22:40;0.40;;;0.38;;
56045;SDS011;41913;51.030;3.706;2023-01-01T04:25:06;0.30;;;0.30;;
56045;SDS011;41913;51.030;3.706;2023-01-01T04:27:32;0.68;;;0.68;;
56045;SDS011;41913;51.030;3.706;2023-01-01T04:29:58;0.50;;;0.50;;
56045;SDS011;41913;51.030;3.706;2023-01-01T04:34:54;0.32;;;0.32;;
56045;SDS011;41913;51.030;3.706;2023-01-01T04:37:20;0.50;;;0.40;;
56045;SDS011;41913;51.030;3.706;2023-01-01T04:39:45;0.45;;;0.45;;
56045;SDS011;41913;51.030;3.706;2023-01-01T04:42:12;0.57;;;0.57;;
56045;SDS011;41913;51.030;3.706;2023-01-01T04:44:38;0.40;;;0.40;;
56045;SDS011;41913;51.030;3.706;2023-01-01T04:47:03;2.72;;;0.30;;
56045;SDS011;41913;51.030;3.706;2023-01-01T04:49:29;0.32;;;0.32;;
56045;SDS011;41913;51.030;3.706;2023-01-01T04:51:55;1.00;;;0.57;;
56045;SDS011;41913;51.030;3.706;2023-01-01T04:54:22;0.93;;;0.50;;
56045;SDS011;41913;51.030;3.706;2023-01-01T04:56:49;0.35;;;0.35;;
56045;SDS011;41913;51.030;3.706;2023-01-01T04:59:15;0.20;;;0.20;;
56045;SDS011;41913;51.030;3.706;2023-01-01T05:01:41;0.30;;;0.30;;
56045;SDS011;41913;51.030;3.706;2023-01-01T05:04:08;0.47;;;0.47;;
56045;SDS011;41913;51.030;3.706;2023-01-01T05:06:37;0.75;;;0.50;;
56045;SDS011;41913;51.030;3.706;2023-01-01T05:09:05;0.20;;;0.20;;
56045;SDS011;41913;51.030;3.706;2023-01-01T05:11:31;0.20;;;0.20;;
56045;SDS011;41913;51.030;3.706;2023-01-01T05:13:58;0.15;;;0.15;;
56045;SDS011;41913;51.030;3.706;2023-01-01T05:16:25;0.57;;;0.30;;
56045;SDS011;41913;51.030;3.706;2023-01-01T05:19:09;0.65;;;0.35;;
56045;SDS011;41913;51.030;3.706;2023-01-01T05:21:36;0.45;;;0.40;;
56045;SDS011;41913;51.030;3.706;2023-01-01T05:24:09;0.32;;;0.32;;
56045;SDS011;41913;51.030;3.706;2023-01-01T05:26:37;0.28;;;0.28;;
56045;SDS011;41913;51.030;3.706;2023-01-01T05:29:06;0.22;;;0.22;;
56045;SDS011;41913;51.030;3.706;2023-01-01T05:31:32;0.30;;;0.30;;
56045;SDS011;41913;51.030;3.706;2023-01-01T05:34:00;0.95;;;0.30;;
56045;SDS011;41913;51.030;3.706;2023-01-01T05:36:29;0.47;;;0.43;;
56045;SDS011;41913;51.030;3.706;2023-01-01T05:39:02;0.32;;;0.32;;
56045;SDS011;41913;51.030;3.706;2023-01-01T05:41:30;0.52;;;0.32;;
56045;SDS011;41913;51.030;3.706;2023-01-01T05:44:00;0.30;;;0.30;;
56045;SDS011;41913;51.030;3.706;2023-01-01T05:46:26;0.20;;;0.20;;
56045;SDS011;41913;51.030;3.706;2023-01-01T05:48:52;0.20;;;0.20;;
56045;SDS011;41913;51.030;3.706;2023-01-01T05:51:19;1.27;;;0.65;;
56045;SDS011;41913;51.030;3.706;2023-01-01T05:53:49;2.47;;;0.80;;
56045;SDS011;41913;51.030;3.706;2023-01-01T05:56:16;0.32;;;0.32;;
56045;SDS011;41913;51.030;3.706;2023-01-01T05:58:44;0.28;;;0.28;;
56045;SDS011;41913;51.030;3.706;2023-01-01T06:06:10;0.63;;;0.25;;
56045;SDS011;41913;51.030;3.706;2023-01-01T06:08:37;0.22;;;0.22;;
56045;SDS011;41913;51.030;3.706;2023-01-01T06:11:04;0.17;;;0.17;;
56045;SDS011;41913;51.030;3.706;2023-01-01T06:13:31;0.30;;;0.30;;
56045;SDS011;41913;51.030;3.706;2023-01-01T06:15:57;0.35;;;0.30;;
56045;SDS011;41913;51.030;3.706;2023-01-01T06:18:24;0.10;;;0.10;;
56045;SDS011;41913;51.030;3.706;2023-01-01T06:20:53;0.20;;;0.20;;
56045;SDS011;41913;51.030;3.706;2023-01-01T06:23:18;0.10;;;0.10;;
56045;SDS011;41913;51.030;3.706;2023-01-01T06:25:44;0.90;;;0.30;;
56045;SDS011;41913;51.030;3.706;2023-01-01T06:28:10;0.20;;;0.20;;
56045;SDS011;41913;51.030;3.706;2023-01-01T06:30:36;0.20;;;0.20;;
56045;SDS011;41913;51.030;3.706;2023-01-01T06:33:03;0.20;;;0.20;;
56045;SDS011;41913;51.030;3.706;2023-01-01T06:35:29;0.95;;;0.20;;
56045;SDS011;41913;51.030;3.706;2023-01-01T06:37:57;0.47;;;0.38;;
56045;SDS011;41913;51.030;3.706;2023-01-01T06:40:23;0.20;;;0.20;;
56045;SDS011;41913;51.030;3.706;2023-01-01T06:42:49;0.30;;;0.30;;
56045;SDS011;41913;51.030;3.706;2023-01-01T06:45:14;0.40;;;0.40;;
56045;SDS011;41913;51.030;3.706;2023-01-01T06:47:40;0.10;;;0.10;;
56045;SDS011;41913;51.030;3.706;2023-01-01T06:50:07;0.25;;;0.25;;
56045;SDS011;41913;51.030;3.706;2023-01-01T06:52:33;0.47;;;0.22;;
56045;SDS011;41913;51.030;3.706;2023-01-01T06:54:58;0.20;;;0.13;;
56045;SDS011;41913;51.030;3.706;2023-01-01T06:57:24;0.20;;;0.20;;
56045;SDS011;41913;51.030;3.706;2023-01-01T06:59:50;0.35;;;0.35;;
56045;SDS011;41913;51.030;3.706;2023-01-01T07:02:16;0.20;;;0.20;;
56045;SDS011;41913;51.030;3.706;2023-01-01T07:04:42;0.22;;;0.22;;
56045;SDS011;41913;51.030;3.706;2023-01-01T07:07:08;0.50;;;0.30;;
56045;SDS011;41913;51.030;3.706;2023-01-01T07:09:35;0.10;;;0.10;;
56045;SDS011;41913;51.030;3.706;2023-01-01T07:12:02;0.52;;;0.38;;
56045;SDS011;41913;51.030;3.706;2023-01-01T07:14:28;0.43;;;0.40;;
56045;SDS011;41913;51.030;3.706;2023-01-01T07:16:54;0.10;;;0.10;;
56045;SDS011;41913;51.030;3.706;2023-01-01T07:19:19;0.52;;;0.22;;
56045;SDS011;41913;51.030;3.706;2023-01-01T07:24:15;0.20;;;0.20;;
56045;SDS011;41913;51.030;3.706;2023-01-01T07:26:41;0.20;;;0.20;;
56045;SDS011;41913;51.030;3.706;2023-01-01T07:29:07;0.20;;;0.20;;
56045;SDS011;41913;51.030;3.706;2023-01-01T07:31:34;0.75;;;0.25;;
56045;SDS011;41913;51.030;3.706;2023-01-01T07:34:02;0.32;;;0.30;;
56045;SDS011;41913;51.030;3.706;2023-01-01T07:36:28;0.20;;;0.20;;
56045;SDS011;41913;51.030;3.706;2023-01-01T07:38:53;0.20;;;0.20;;
56045;SDS011;41913;51.030;3.706;2023-01-01T07:41:19;0.30;;;0.30;;
56045;SDS011;41913;51.030;3.706;2023-01-01T07:43:44;0.20;;;0.20;;
56045;SDS011;41913;51.030;3.706;2023-01-01T07:46:11;1.55;;;0.60;;
56045;SDS011;41913;51.030;3.706;2023-01-01T07:48:37;0.10;;;0.10;;
56045;SDS011;41913;51.030;3.706;2023-01-01T07:51:03;1.00;;;0.30;;
56045;SDS011;41913;51.030;3.706;2023-01-01T07:53:35;0.20;;;0.20;;
56045;SDS011;41913;51.030;3.706;2023-01-01T07:56:00;0.65;;;0.40;;
56045;SDS011;41913;51.030;3.706;2023-01-01T07:58:28;0.30;;;0.30;;
56045;SDS011;41913;51.030;3.706;2023-01-01T08:00:54;0.38;;;0.38;;
56045;SDS011;41913;51.030;3.706;2023-01-01T08:03:19;0.20;;;0.20;;
56045;SDS011;41913;51.030;3.706;2023-01-01T08:05:45;0.20;;;0.20;;
56045;SDS011;41913;51.030;3.706;2023-01-01T08:08:11;1.00;;;0.40;;
56045;SDS011;41913;51.030;3.706;2023-01-01T08:10:36;0.30;;;0.30;;
56045;SDS011;41913;51.030;3.706;2023-01-01T08:13:03;0.63;;;0.30;;
56045;SDS011;41913;51.030;3.706;2023-01-01T08:15:31;0.30;;;0.30;;
56045;SDS011;41913;51.030;3.706;2023-01-01T08:17:58;0.90;;;0.85;;
56045;SDS011;41913;51.030;3.706;2023-01-01T08:20:25;0.10;;;0.10;;
56045;SDS011;41913;51.030;3.706;2023-01-01T08:22:52;3.03;;;0.32;;
56045;SDS011;41913;51.030;3.706;2023-01-01T08:25:19;0.30;;;0.30;;
56045;SDS011;41913;51.030;3.706;2023-01-01T08:27:46;0.22;;;0.22;;
56045;SDS011;41913;51.030;3.706;2023-01-01T08:30:12;0.20;;;0.20;;
56045;SDS011;41913;51.030;3.706;2023-01-01T08:32:39;0.25;;;0.25;;
56045;SDS011;41913;51.030;3.706;2023-01-01T08:35:07;0.35;;;0.35;;
56045;SDS011;41913;51.030;3.706;2023-01-01T08:37:32;0.30;;;0.30;;
56045;SDS011;41913;51.030;3.706;2023-01-01T08:39:58;0.22;;;0.22;;
56045;SDS011;41913;51.030;3.706;2023-01-01T08:42:25;0.30;;;0.30;;
56045;SDS011;41913;51.030;3.706;2023-01-01T08:44:50;0.40;;;0.40;;
56045;SDS011;41913;51.030;3.706;2023-01-01T08:47:18;0.32;;;0.30;;
56045;SDS011;41913;51.030;3.706;2023-01-01T08:49:45;0.20;;;0.20;;
56045;SDS011;41913;51.030;3.706;2023-01-01T08:52:11;0.20;;;0.20;;
56045;SDS011;41913;51.030;3.706;2023-01-01T08:54:38;0.17;;;0.17;;
56045;SDS011;41913;51.030;3.706;2023-01-01T08:57:04;0.30;;;0.30;;
56045;SDS011;41913;51.030;3.706;2023-01-01T08:59:30;1.20;;;0.70;;
56045;SDS011;41913;51.030;3.706;2023-01-01T09:01:55;0.30;;;0.30;;
56045;SDS011;41913;51.030;3.706;2023-01-01T09:04:21;0.25;;;0.25;;
56045;SDS011;41913;51.030;3.706;2023-01-01T09:06:47;0.30;;;0.30;;
56045;SDS011;41913;51.030;3.706;2023-01-01T09:09:13;0.20;;;0.20;;
56045;SDS011;41913;51.030;3.706;2023-01-01T09:11:39;0.40;;;0.40;;
56045;SDS011;41913;51.030;3.706;2023-01-01T09:14:23;0.50;;;0.50;;
56045;SDS011;41913;51.030;3.706;2023-01-01T09:16:49;0.38;;;0.38;;
56045;SDS011;41913;51.030;3.706;2023-01-01T09:19:14;1.75;;;0.30;;
56045;SDS011;41913;51.030;3.706;2023-01-01T09:21:43;1.48;;;0.57;;
56045;SDS011;41913;51.030;3.706;2023-01-01T09:24:10;0.60;;;0.60;;
56045;SDS011;41913;51.030;3.706;2023-01-01T09:26:36;0.52;;;0.50;;
56045;SDS011;41913;51.030;3.706;2023-01-01T09:29:01;0.30;;;0.30;;
56045;SDS011;41913;51.030;3.706;2023-01-01T09:31:27;0.45;;;0.35;;
56045;SDS011;41913;51.030;3.706;2023-01-01T09:33:53;0.40;;;0.40;;
56045;SDS011;41913;51.030;3.706;2023-01-01T09:38:48;0.30;;;0.30;;
56045;SDS011;41913;51.030;3.706;2023-01-01T09:46:52;0.40;;;0.40;;
56045;SDS011;41913;51.030;3.706;2023-01-01T09:52:05;0.45;;;0.40;;
56045;SDS011;41913;51.030;3.706;2023-01-01T09:54:32;0.50;;;0.40;;
56045;SDS011;41913;51.030;3.706;2023-01-01T09:57:06;0.40;;;0.40;;
56045;SDS011;41913;51.030;3.706;2023-01-01T09:59:36;0.93;;;0.80;;
56045;SDS011;41913;51.030;3.706;2023-01-01T10:02:17;3.25;;;0.43;;
56045;SDS011;41913;51.030;3.706;2023-01-01T10:07:28;0.28;;;0.28;;
56045;SDS011;41913;51.030;3.706;2023-01-01T10:10:21;0.40;;;0.40;;
56045;SDS011;41913;51.030;3.706;2023-01-01T10:15:43;0.80;;;0.50;;
56045;SDS011;41913;51.030;3.706;2023-01-01T10:18:33;0.20;;;0.20;;
56045;SDS011;41913;51.030;3.706;2023-01-01T10:21:11;0.70;;;0.38;;
56045;SDS011;41913;51.030;3.706;2023-01-01T10:26:27;0.30;;;0.30;;
56045;SDS011;41913;51.030;3.706;2023-01-01T10:31:30;2.70;;;0.65;;
56045;SDS011;41913;51.030;3.706;2023-01-01T10:34:15;0.30;;;0.30;;
56045;SDS011;41913;51.030;3.706;2023-01-01T10:36:44;1.95;;;0.50;;
56045;SDS011;41913;51.030;3.706;2023-01-01T10:39:17;6.15;;;1.30;;
56045;SDS011;41913;51.030;3.706;2023-01-01T10:41:43;2.15;;;0.65;;
56045;SDS011;41913;51.030;3.706;2023-01-01T10:44:12;3.58;;;0.70;;
56045;SDS011;41913;51.030;3.706;2023-01-01T10:46:45;2.20;;;0.70;;
56045;SDS011;41913;51.030;3.706;2023-01-01T10:49:15;2.53;;;0.80;;
56045;SDS011;41913;51.030;3.706;2023-01-01T10:51:42;1.67;;;0.88;;
56045;SDS011;41913;51.030;3.706;2023-01-01T10:57:01;4.63;;;1.85;;
56045;SDS011;41913;51.030;3.706;2023-01-01T11:05:45;0.82;;;0.60;;
56045;SDS011;41913;51.030;3.706;2023-01-01T11:08:24;1.05;;;0.90;;
56045;SDS011;41913;51.030;3.706;2023-01-01T11:10:51;1.23;;;1.13;;
56045;SDS011;41913;51.030;3.706;2023-01-01T11:13:18;3.80;;;1.05;;
56045;SDS011;41913;51.030;3.706;2023-01-01T11:15:46;1.33;;;0.88;;
56045;SDS011;41913;51.030;3.706;2023-01-01T11:18:16;1.42;;;0.60;;
56045;SDS011;41913;51.030;3.706;2023-01-01T11:20:50;0.88;;;0.63;;
56045;SDS011;41913;51.030;3.706;2023-01-01T11:23:31;1.33;;;0.80;;
56045;SDS011;41913;51.030;3.706;2023-01-01T11:26:05;0.85;;;0.85;;
56045;SDS011;41913;51.030;3.706;2023-01-01T11:28:39;1.20;;;0.85;;
56045;SDS011;41913;51.030;3.706;2023-01-01T11:33:47;2.80;;;0.65;;
56045;SDS011;41913;51.030;3.706;2023-01-01T11:36:26;2.35;;;0.77;;
56045;SDS011;41913;51.030;3.706;2023-01-01T11:41:51;0.88;;;0.75;;
56045;SDS011;41913;51.030;3.706;2023-01-01T11:46:56;0.82;;;0.73;;
56045;SDS011;41913;51.030;3.706;2023-01-01T11:49:23;1.98;;;0.90;;
56045;SDS011;41913;51.030;3.706;2023-01-01T11:51:51;1.98;;;1.10;;
56045;SDS011;41913;51.030;3.706;2023-01-01T11:54:33;2.45;;;1.10;;
56045;SDS011;41913;51.030;3.706;2023-01-01T11:57:12;1.75;;;1.00;;
56045;SDS011;41913;51.030;3.706;2023-01-01T11:59:49;0.63;;;0.63;;
56045;SDS011;41913;51.030;3.706;2023-01-01T12:02:41;2.33;;;0.60;;
56045;SDS011;41913;51.030;3.706;2023-01-01T12:08:05;1.95;;;0.70;;
56045;SDS011;41913;51.030;3.706;2023-01-01T12:10:57;1.48;;;0.75;;
56045;SDS011;41913;51.030;3.706;2023-01-01T12:13:47;0.60;;;0.60;;
56045;SDS011;41913;51.030;3.706;2023-01-01T12:16:23;2.33;;;0.95;;
56045;SDS011;41913;51.030;3.706;2023-01-01T12:19:05;4.60;;;0.70;;
56045;SDS011;41913;51.030;3.706;2023-01-01T12:21:43;2.13;;;0.63;;
56045;SDS011;41913;51.030;3.706;2023-01-01T12:24:13;7.28;;;2.03;;
56045;SDS011;41913;51.030;3.706;2023-01-01T12:32:06;2.53;;;1.15;;
56045;SDS011;41913;51.030;3.706;2023-01-01T12:37:45;2.83;;;1.10;;
56045;SDS011;41913;51.030;3.706;2023-01-01T12:40:33;2.58;;;1.40;;
56045;SDS011;41913;51.030;3.706;2023-01-01T12:43:10;16.15;;;1.88;;
56045;SDS011;41913;51.030;3.706;2023-01-01T12:51:22;8.55;;;2.20;;
56045;SDS011;41913;51.030;3.706;2023-01-01T12:57:16;14.13;;;2.58;;
56045;SDS011;41913;51.030;3.706;2023-01-01T12:59:37;7.07;;;2.10;;
56045;SDS011;41913;51.030;3.706;2023-01-01T13:02:15;12.40;;;3.40;;
56045;SDS011;41913;51.030;3.706;2023-01-01T13:04:55;10.38;;;2.83;;
56045;SDS011;41913;51.030;3.706;2023-01-01T13:07:34;5.95;;;2.40;;
56045;SDS011;41913;51.030;3.706;2023-01-01T13:12:52;10.98;;;2.97;;
56045;SDS011;41913;51.030;3.706;2023-01-01T13:20:46;4.57;;;2.10;;
56045;SDS011;41913;51.030;3.706;2023-01-01T13:51:01;5.63;;;1.63;;
56045;SDS011;41913;51.030;3.706;2023-01-01T13:59:18;2.40;;;1.10;;
56045;SDS011;41913;51.030;3.706;2023-01-01T14:04:44;2.08;;;1.50;;
56045;SDS011;41913;51.030;3.706;2023-01-01T14:12:50;10.25;;;2.03;;
56045;SDS011;41913;51.030;3.706;2023-01-01T14:15:24;7.75;;;2.15;;
56045;SDS011;41913;51.030;3.706;2023-01-01T14:17:55;9.77;;;2.38;;
56045;SDS011;41913;51.030;3.706;2023-01-01T14:20:35;10.27;;;2.28;;
56045;SDS011;41913;51.030;3.706;2023-01-01T14:25:59;4.55;;;1.63;;
56045;SDS011;41913;51.030;3.706;2023-01-01T14:28:31;14.32;;;2.67;;
56045;SDS011;41913;51.030;3.706;2023-01-01T14:30:59;7.97;;;1.83;;
56045;SDS011;41913;51.030;3.706;2023-01-01T14:33:30;5.90;;;2.22;;
56045;SDS011;41913;51.030;3.706;2023-01-01T14:36:01;6.05;;;1.63;;
56045;SDS011;41913;51.030;3.706;2023-01-01T14:38:35;6.68;;;1.80;;
56045;SDS011;41913;51.030;3.706;2023-01-01T14:43:55;4.70;;;1.52;;
56045;SDS011;41913;51.030;3.706;2023-01-01T14:46:26;6.72;;;2.25;;
56045;SDS011;41913;51.030;3.706;2023-01-01T14:48:57;7.57;;;1.77;;
56045;SDS011;41913;51.030;3.706;2023-01-01T14:51:26;7.13;;;1.80;;
56045;SDS011;41913;51.030;3.706;2023-01-01T14:53:56;11.18;;;2.67;;
56045;SDS011;41913;51.030;3.706;2023-01-01T14:56:27;8.77;;;2.10;;
56045;SDS011;41913;51.030;3.706;2023-01-01T14:59:06;6.70;;;1.50;;
56045;SDS011;41913;51.030;3.706;2023-01-01T15:01:42;10.88;;;2.10;;
56045;SDS011;41913;51.030;3.706;2023-01-01T15:04:21;1.90;;;1.63;;
56045;SDS011;41913;51.030;3.706;2023-01-01T15:06:54;1.58;;;1.40;;
56045;SDS011;41913;51.030;3.706;2023-01-01T15:09:21;4.38;;;1.48;;
56045;SDS011;41913;51.030;3.706;2023-01-01T15:11:52;5.72;;;1.23;;
56045;SDS011;41913;51.030;3.706;2023-01-01T15:17:01;4.97;;;1.27;;
56045;SDS011;41913;51.030;3.706;2023-01-01T15:19:31;2.30;;;0.85;;
56045;SDS011;41913;51.030;3.706;2023-01-01T15:21:59;3.55;;;1.27;;
56045;SDS011;41913;51.030;3.706;2023-01-01T15:24:25;1.88;;;1.02;;
56045;SDS011;41913;51.030;3.706;2023-01-01T15:27:00;4.05;;;1.58;;
56045;SDS011;41913;51.030;3.706;2023-01-01T15:29:36;2.35;;;0.93;;
56045;SDS011;41913;51.030;3.706;2023-01-01T15:32:05;2.65;;;1.60;;
56045;SDS011;41913;51.030;3.706;2023-01-01T15:34:34;1.38;;;1.27;;
56045;SDS011;41913;51.030;3.706;2023-01-01T15:39:43;3.35;;;1.00;;
56045;SDS011;41913;51.030;3.706;2023-01-01T15:44:54;1.95;;;1.10;;
56045;SDS011;41913;51.030;3.706;2023-01-01T15:47:20;1.33;;;1.02;;
56045;SDS011;41913;51.030;3.706;2023-01-01T15:50:05;2.17;;;1.33;;
56045;SDS011;41913;51.030;3.706;2023-01-01T15:52:32;1.98;;;1.20;;
56045;SDS011;41913;51.030;3.706;2023-01-01T15:54:59;5.18;;;1.55;;
56045;SDS011;41913;51.030;3.706;2023-01-01T15:57:25;1.83;;;1.30;;
56045;SDS011;41913;51.030;3.706;2023-01-01T15:59:51;0.80;;;0.75;;
56045;SDS011;41913;51.030;3.706;2023-01-01T16:02:20;1.10;;;1.00;;
56045;SDS011;41913;51.030;3.706;2023-01-01T16:04:52;1.02;;;0.85;;
56045;SDS011;41913;51.030;3.706;2023-01-01T16:07:19;1.85;;;1.17;;
56045;SDS011;41913;51.030;3.706;2023-01-01T16:09:48;4.15;;;0.70;;
56045;SDS011;41913;51.030;3.706;2023-01-01T16:12:15;1.67;;;1.00;;
56045;SDS011;41913;51.030;3.706;2023-01-01T16:14:42;1.73;;;1.00;;
56045;SDS011;41913;51.030;3.706;2023-01-01T16:17:10;1.48;;;0.77;;
56045;SDS011;41913;51.030;3.706;2023-01-01T16:19:38;1.45;;;0.82;;
56045;SDS011;41913;51.030;3.706;2023-01-01T16:22:05;1.63;;;0.90;;
56045;SDS011;41913;51.030;3.706;2023-01-01T16:24:31;1.02;;;0.85;;
56045;SDS011;41913;51.030;3.706;2023-01-01T16:27:00;1.27;;;0.63;;
56045;SDS011;41913;51.030;3.706;2023-01-01T16:29:25;0.70;;;0.70;;
56045;SDS011;41913;51.030;3.706;2023-01-01T16:31:51;0.80;;;0.80;;
56045;SDS011;41913;51.030;3.706;2023-01-01T16:34:17;0.95;;;0.95;;
56045;SDS011;41913;51.030;3.706;2023-01-01T16:36:43;1.02;;;0.77;;
56045;SDS011;41913;51.030;3.706;2023-01-01T16:39:09;0.75;;;0.75;;
56045;SDS011;41913;51.030;3.706;2023-01-01T16:41:35;0.73;;;0.73;;
56045;SDS011;41913;51.030;3.706;2023-01-01T16:44:04;1.48;;;1.27;;
56045;SDS011;41913;51.030;3.706;2023-01-01T16:46:30;0.80;;;0.80;;
56045;SDS011;41913;51.030;3.706;2023-01-01T16:48:57;2.95;;;1.13;;
56045;SDS011;41913;51.030;3.706;2023-01-01T16:51:24;1.80;;;0.70;;
56045;SDS011;41913;51.030;3.706;2023-01-01T16:53:52;3.60;;;0.93;;
56045;SDS011;41913;51.030;3.706;2023-01-01T16:56:17;3.20;;;1.20;;
56045;SDS011;41913;51.030;3.706;2023-01-01T16:58:43;1.88;;;1.33;;
56045;SDS011;41913;51.030;3.706;2023-01-01T17:01:09;3.65;;;1.10;;
56045;SDS011;41913;51.030;3.706;2023-01-01T17:03:35;1.08;;;0.85;;
56045;SDS011;41913;51.030;3.706;2023-01-01T17:06:05;6.30;;;1.33;;
56045;SDS011;41913;51.030;3.706;2023-01-01T17:08:33;0.75;;;0.75;;
56045;SDS011;41913;51.030;3.706;2023-01-01T17:11:04;1.83;;;1.15;;
56045;SDS011;41913;51.030;3.706;2023-01-01T17:13:32;2.75;;;0.88;;
56045;SDS011;41913;51.030;3.706;2023-01-01T17:15:58;0.60;;;0.60;;
56045;SDS011;41913;51.030;3.706;2023-01-01T17:18:24;3.25;;;0.95;;
56045;SDS011;41913;51.030;3.706;2023-01-01T17:20:50;1.20;;;0.73;;
56045;SDS011;41913;51.030;3.706;2023-01-01T17:23:16;1.85;;;1.08;;
56045;SDS011;41913;51.030;3.706;2023-01-01T17:25:41;3.00;;;1.38;;
56045;SDS011;41913;51.030;3.706;2023-01-01T17:28:07;3.15;;;0.90;;
56045;SDS011;41913;51.030;3.706;2023-01-01T17:30:33;2.80;;;1.27;;
56045;SDS011;41913;51.030;3.706;2023-01-01T17:32:59;2.25;;;1.20;;
56045;SDS011;41913;51.030;3.706;2023-01-01T17:35:24;3.90;;;1.17;;
56045;SDS011;41913;51.030;3.706;2023-01-01T17:37:52;3.67;;;1.00;;
56045;SDS011;41913;51.030;3.706;2023-01-01T17:40:18;1.65;;;1.45;;
56045;SDS011;41913;51.030;3.706;2023-01-01T17:42:43;4.50;;;1.08;;
56045;SDS011;41913;51.030;3.706;2023-01-01T17:45:11;2.25;;;0.88;;
56045;SDS011;41913;51.030;3.706;2023-01-01T17:47:38;4.03;;;0.90;;
56045;SDS011;41913;51.030;3.706;2023-01-01T17:50:05;6.75;;;1.20;;
56045;SDS011;41913;51.030;3.706;2023-01-01T17:52:31;6.20;;;2.17;;
56045;SDS011;41913;51.030;3.706;2023-01-01T17:54:56;1.85;;;1.15;;
56045;SDS011;41913;51.030;3.706;2023-01-01T17:57:23;1.13;;;1.00;;